sensor_id;sensor_type;location;lat;lon;timestamp;temperature;humidity
15959;DHT22;8078;47.822;9.402;2023-07-31T00:01:15;14.30;1.00
15959;DHT22;8078;47.822;9.402;2023-07-31T00:03:40;14.40;1.00
15959;DHT22;8078;47.822;9.402;2023-07-31T00:06:06;14.50;99.90
15959;DHT22;8078;47.822;9.402;2023-07-31T00:08:31;14.50;99.90
15959;DHT22;8078;47.822;9.402;2023-07-31T00:10:57;14.50;99.90
15959;DHT22;8078;47.822;9.402;2023-07-31T00:13:22;14.50;1.00
15959;DHT22;8078;47.822;9.402;2023-07-31T00:15:48;14.40;1.00
15959;DHT22;8078;47.822;9.402;2023-07-31T00:18:14;14.40;1.00
15959;DHT22;8078;47.822;9.402;2023-07-31T00:20:39;14.50;30.40
15959;DHT22;8078;47.822;9.402;2023-07-31T00:23:05;14.40;1.00
15959;DHT22;8078;47.822;9.402;2023-07-31T00:25:30;14.40;1.00
15959;DHT22;8078;47.822;9.402;2023-07-31T00:27:56;14.40;1.00
15959;DHT22;8078;47.822;9.402;2023-07-31T00:30:21;14.40;1.00
15959;DHT22;8078;47.822;9.402;2023-07-31T00:32:47;14.30;1.00
15959;DHT22;8078;47.822;9.402;2023-07-31T00:35:13;14.20;99.90
15959;DHT22;8078;47.822;9.402;2023-07-31T00:37:38;14.20;99.90
15959;DHT22;8078;47.822;9.402;2023-07-31T00:40:04;14.20;99.90
15959;DHT22;8078;47.822;9.402;2023-07-31T00:42:30;14.20;99.90
15959;DHT22;8078;47.822;9.402;2023-07-31T00:44:56;14.10;1.00
15959;DHT22;8078;47.822;9.402;2023-07-31T00:47:21;14.10;1.00
15959;DHT22;8078;47.822;9.402;2023-07-31T00:49:48;14.00;1.00
15959;DHT22;8078;47.822;9.402;2023-07-31T00:52:13;14.00;1.00
15959;DHT22;8078;47.822;9.402;2023-07-31T00:54:39;14.00;1.00
15959;DHT22;8078;47.822;9.402;2023-07-31T00:59:32;13.80;99.90
15959;DHT22;8078;47.822;9.402;2023-07-31T01:01:58;13.80;99.90
15959;DHT22;8078;47.822;9.402;2023-07-31T01:04:24;13.80;99.90
15959;DHT22;8078;47.822;9.402;2023-07-31T01:07:20;13.80;99.90
15959;DHT22;8078;47.822;9.402;2023-07-31T01:10:15;13.80;99.90
15959;DHT22;8078;47.822;9.402;2023-07-31T01:12:37;13.80;1.00
15959;DHT22;8078;47.822;9.402;2023-07-31T01:15:08;13.80;1.00
15959;DHT22;8078;47.822;9.402;2023-07-31T01:17:41;13.80;1.00
15959;DHT22;8078;47.822;9.402;2023-07-31T01:20:12;13.80;1.00
15959;DHT22;8078;47.822;9.402;2023-07-31T01:22:53;13.80;1.00
15959;DHT22;8078;47.822;9.402;2023-07-31T01:25:46;13.80;1.00
15959;DHT22;8078;47.822;9.402;2023-07-31T01:28:14;13.80;99.90
15959;DHT22;8078;47.822;9.402;2023-07-31T01:30:44;13.70;99.90
15959;DHT22;8078;47.822;9.402;2023-07-31T01:33:11;13.70;99.90
15959;DHT22;8078;47.822;9.402;2023-07-31T01:35:38;13.70;1.00
15959;DHT22;8078;47.822;9.402;2023-07-31T01:38:05;13.60;1.00
15959;DHT22;8078;47.822;9.402;2023-07-31T01:40:30;13.70;1.00
15959;DHT22;8078;47.822;9.402;2023-07-31T01:42:56;13.70;1.00
15959;DHT22;8078;47.822;9.402;2023-07-31T01:45:21;13.60;1.00
15959;DHT22;8078;47.822;9.402;2023-07-31T01:47:47;13.60;31.30
15959;DHT22;8078;47.822;9.402;2023-07-31T01:50:13;13.50;1.00
15959;DHT22;8078;47.822;9.402;2023-07-31T01:52:38;13.50;99.90
15959;DHT22;8078;47.822;9.402;2023-07-31T01:55:04;13.40;1.00
15959;DHT22;8078;47.822;9.402;2023-07-31T01:57:30;13.40;1.00
15959;DHT22;8078;47.822;9.402;2023-07-31T01:59:55;13.40;1.00
15959;DHT22;8078;47.822;9.402;2023-07-31T02:02:21;13.30;99.90
15959;DHT22;8078;47.822;9.402;2023-07-31T02:04:48;13.30;99.90
15959;DHT22;8078;47.822;9.402;2023-07-31T02:07:14;13.30;1.00
15959;DHT22;8078;47.822;9.402;2023-07-31T02:09:40;13.30;1.00
15959;DHT22;8078;47.822;9.402;2023-07-31T02:12:05;13.20;99.90
15959;DHT22;8078;47.822;9.402;2023-07-31T02:17:02;13.00;99.90
15959;DHT22;8078;47.822;9.402;2023-07-31T02:19:28;13.00;1.00
15959;DHT22;8078;47.822;9.402;2023-07-31T02:21:53;13.00;99.90
15959;DHT22;8078;47.822;9.402;2023-07-31T02:24:19;13.00;1.00
15959;DHT22;8078;47.822;9.402;2023-07-31T02:26:44;13.10;1.00
15959;DHT22;8078;47.822;9.402;2023-07-31T02:29:10;13.00;1.00
15959;DHT22;8078;47.822;9.402;2023-07-31T02:31:35;13.00;1.00
15959;DHT22;8078;47.822;9.402;2023-07-31T02:34:01;12.90;99.90
15959;DHT22;8078;47.822;9.402;2023-07-31T02:36:26;12.90;1.00
15959;DHT22;8078;47.822;9.402;2023-07-31T02:38:52;12.80;1.00
15959;DHT22;8078;47.822;9.402;2023-07-31T02:41:17;12.80;1.00
15959;DHT22;8078;47.822;9.402;2023-07-31T02:43:43;12.80;1.00
15959;DHT22;8078;47.822;9.402;2023-07-31T02:46:09;12.80;1.00
15959;DHT22;8078;47.822;9.402;2023-07-31T02:48:35;12.70;99.90
15959;DHT22;8078;47.822;9.402;2023-07-31T02:51:00;12.70;99.90
15959;DHT22;8078;47.822;9.402;2023-07-31T02:53:26;12.70;1.00
15959;DHT22;8078;47.822;9.402;2023-07-31T02:55:51;12.70;99.90
15959;DHT22;8078;47.822;9.402;2023-07-31T02:58:17;12.70;1.00
15959;DHT22;8078;47.822;9.402;2023-07-31T03:00:45;12.70;1.00
15959;DHT22;8078;47.822;9.402;2023-07-31T03:03:11;12.60;1.00
15959;DHT22;8078;47.822;9.402;2023-07-31T03:05:37;12.70;99.90
15959;DHT22;8078;47.822;9.402;2023-07-31T03:10:29;12.50;99.90
15959;DHT22;8078;47.822;9.402;2023-07-31T03:12:54;12.50;1.00
15959;DHT22;8078;47.822;9.402;2023-07-31T03:15:20;12.60;99.90
15959;DHT22;8078;47.822;9.402;2023-07-31T03:17:45;12.50;1.00
15959;DHT22;8078;47.822;9.402;2023-07-31T03:20:11;12.40;1.00
15959;DHT22;8078;47.822;9.402;2023-07-31T03:22:37;12.60;99.90
15959;DHT22;8078;47.822;9.402;2023-07-31T03:25:03;12.50;99.90
15959;DHT22;8078;47.822;9.402;2023-07-31T03:27:29;12.50;1.00
15959;DHT22;8078;47.822;9.402;2023-07-31T03:29:55;12.40;1.00
15959;DHT22;8078;47.822;9.402;2023-07-31T03:32:20;12.40;1.00
15959;DHT22;8078;47.822;9.402;2023-07-31T03:34:46;12.30;1.00
15959;DHT22;8078;47.822;9.402;2023-07-31T03:37:11;12.30;1.00
15959;DHT22;8078;47.822;9.402;2023-07-31T03:39:37;12.30;1.00
15959;DHT22;8078;47.822;9.402;2023-07-31T03:42:02;12.20;1.00
15959;DHT22;8078;47.822;9.402;2023-07-31T03:44:28;12.30;1.00
15959;DHT22;8078;47.822;9.402;2023-07-31T03:46:54;12.30;99.90
15959;DHT22;8078;47.822;9.402;2023-07-31T03:49:19;12.40;99.90
15959;DHT22;8078;47.822;9.402;2023-07-31T08:07:28;15.80;99.90
15959;DHT22;8078;47.822;9.402;2023-07-31T08:09:54;15.10;99.90
15959;DHT22;8078;47.822;9.402;2023-07-31T08:12:19;15.80;99.90
15959;DHT22;8078;47.822;9.402;2023-07-31T08:14:45;15.80;99.90
15959;DHT22;8078;47.822;9.402;2023-07-31T08:17:10;15.70;99.90
15959;DHT22;8078;47.822;9.402;2023-07-31T08:19:36;15.30;98.00
15959;DHT22;8078;47.822;9.402;2023-07-31T08:22:01;15.30;99.90
15959;DHT22;8078;47.822;9.402;2023-07-31T08:24:27;15.20;99.90
15959;DHT22;8078;47.822;9.402;2023-07-31T08:26:52;15.10;99.90
15959;DHT22;8078;47.822;9.402;2023-07-31T08:29:18;14.80;99.90
15959;DHT22;8078;47.822;9.402;2023-07-31T08:31:44;14.70;99.90
15959;DHT22;8078;47.822;9.402;2023-07-31T08:34:09;14.70;99.90
15959;DHT22;8078;47.822;9.402;2023-07-31T08:36:35;15.20;99.90
15959;DHT22;8078;47.822;9.402;2023-07-31T08:39:00;15.00;95.70
15959;DHT22;8078;47.822;9.402;2023-07-31T08:41:27;15.40;99.90
15959;DHT22;8078;47.822;9.402;2023-07-31T08:43:53;15.90;99.90
15959;DHT22;8078;47.822;9.402;2023-07-31T08:46:21;15.50;99.90
15959;DHT22;8078;47.822;9.402;2023-07-31T08:48:46;15.50;96.60
15959;DHT22;8078;47.822;9.402;2023-07-31T08:51:14;15.70;99.90
15959;DHT22;8078;47.822;9.402;2023-07-31T08:53:40;16.10;99.90
15959;DHT22;8078;47.822;9.402;2023-07-31T08:56:06;16.10;81.70
15959;DHT22;8078;47.822;9.402;2023-07-31T08:58:32;16.10;82.60
15959;DHT22;8078;47.822;9.402;2023-07-31T09:01:03;16.00;89.20
15959;DHT22;8078;47.822;9.402;2023-07-31T09:03:32;16.00;82.60
15959;DHT22;8078;47.822;9.402;2023-07-31T09:05:58;16.00;81.40
15959;DHT22;8078;47.822;9.402;2023-07-31T09:08:26;16.10;76.80
15959;DHT22;8078;47.822;9.402;2023-07-31T09:10:59;16.10;70.20
15959;DHT22;8078;47.822;9.402;2023-07-31T09:13:28;16.00;65.70
15959;DHT22;8078;47.822;9.402;2023-07-31T09:15:53;16.20;65.50
15959;DHT22;8078;47.822;9.402;2023-07-31T09:18:19;16.30;72.80
15959;DHT22;8078;47.822;9.402;2023-07-31T09:21:03;16.20;66.60
15959;DHT22;8078;47.822;9.402;2023-07-31T09:23:43;16.50;74.90
15959;DHT22;8078;47.822;9.402;2023-07-31T09:26:09;16.90;78.70
15959;DHT22;8078;47.822;9.402;2023-07-31T09:28:35;16.60;75.70
15959;DHT22;8078;47.822;9.402;2023-07-31T09:31:00;16.50;76.20
15959;DHT22;8078;47.822;9.402;2023-07-31T09:33:26;16.90;87.40
15959;DHT22;8078;47.822;9.402;2023-07-31T09:35:51;16.50;73.20
15959;DHT22;8078;47.822;9.402;2023-07-31T09:38:17;16.50;75.90
15959;DHT22;8078;47.822;9.402;2023-07-31T09:40:45;16.80;81.00
15959;DHT22;8078;47.822;9.402;2023-07-31T09:43:13;17.20;90.30
15959;DHT22;8078;47.822;9.402;2023-07-31T09:45:43;17.30;92.90
15959;DHT22;8078;47.822;9.402;2023-07-31T09:48:10;16.80;77.00
15959;DHT22;8078;47.822;9.402;2023-07-31T09:50:41;16.70;76.70
15959;DHT22;8078;47.822;9.402;2023-07-31T09:53:08;16.30;61.00
15959;DHT22;8078;47.822;9.402;2023-07-31T09:55:35;16.20;61.00
15959;DHT22;8078;47.822;9.402;2023-07-31T09:58:06;16.30;59.90
15959;DHT22;8078;47.822;9.402;2023-07-31T10:00:32;16.30;59.10
15959;DHT22;8078;47.822;9.402;2023-07-31T10:03:08;16.40;62.80
15959;DHT22;8078;47.822;9.402;2023-07-31T10:08:00;17.30;83.00
15959;DHT22;8078;47.822;9.402;2023-07-31T10:10:27;17.40;82.30
15959;DHT22;8078;47.822;9.402;2023-07-31T10:12:54;17.10;75.70
15959;DHT22;8078;47.822;9.402;2023-07-31T10:15:21;17.00;69.80
15959;DHT22;8078;47.822;9.402;2023-07-31T10:17:48;16.70;61.40
15959;DHT22;8078;47.822;9.402;2023-07-31T10:20:15;16.90;59.00
15959;DHT22;8078;47.822;9.402;2023-07-31T10:22:44;16.80;59.40
15959;DHT22;8078;47.822;9.402;2023-07-31T10:25:11;16.70;54.70
15959;DHT22;8078;47.822;9.402;2023-07-31T10:27:38;16.70;55.30
15959;DHT22;8078;47.822;9.402;2023-07-31T10:30:17;17.20;66.50
15959;DHT22;8078;47.822;9.402;2023-07-31T10:32:44;17.50;80.00
15959;DHT22;8078;47.822;9.402;2023-07-31T10:35:11;17.90;82.20
15959;DHT22;8078;47.822;9.402;2023-07-31T10:40:09;17.10;64.40
15959;DHT22;8078;47.822;9.402;2023-07-31T10:42:37;17.30;69.60
15959;DHT22;8078;47.822;9.402;2023-07-31T10:45:09;17.40;71.30
15959;DHT22;8078;47.822;9.402;2023-07-31T10:48:02;17.60;73.70
15959;DHT22;8078;47.822;9.402;2023-07-31T10:50:29;17.80;80.40
15959;DHT22;8078;47.822;9.402;2023-07-31T10:52:56;17.30;56.50
15959;DHT22;8078;47.822;9.402;2023-07-31T10:55:42;17.90;74.00
15959;DHT22;8078;47.822;9.402;2023-07-31T10:58:12;17.80;77.00
15959;DHT22;8078;47.822;9.402;2023-07-31T11:00:43;17.00;55.70
15959;DHT22;8078;47.822;9.402;2023-07-31T11:03:19;17.10;62.60
15959;DHT22;8078;47.822;9.402;2023-07-31T11:06:00;17.00;58.60
15959;DHT22;8078;47.822;9.402;2023-07-31T11:08:32;17.00;54.50
15959;DHT22;8078;47.822;9.402;2023-07-31T11:13:27;17.10;56.60
15959;DHT22;8078;47.822;9.402;2023-07-31T11:15:52;17.50;66.20
15959;DHT22;8078;47.822;9.402;2023-07-31T11:18:18;17.40;58.50
15959;DHT22;8078;47.822;9.402;2023-07-31T11:20:44;17.60;66.60
15959;DHT22;8078;47.822;9.402;2023-07-31T11:23:10;17.40;60.80
15959;DHT22;8078;47.822;9.402;2023-07-31T11:25:37;17.20;50.10
15959;DHT22;8078;47.822;9.402;2023-07-31T11:28:10;17.30;51.40
15959;DHT22;8078;47.822;9.402;2023-07-31T11:30:37;17.70;63.80
15959;DHT22;8078;47.822;9.402;2023-07-31T11:33:04;17.80;60.70
15959;DHT22;8078;47.822;9.402;2023-07-31T11:35:35;17.90;64.20
15959;DHT22;8078;47.822;9.402;2023-07-31T11:38:01;18.20;71.90
15959;DHT22;8078;47.822;9.402;2023-07-31T11:40:27;18.50;77.20
15959;DHT22;8078;47.822;9.402;2023-07-31T11:42:58;18.30;74.10
15959;DHT22;8078;47.822;9.402;2023-07-31T11:45:26;18.60;78.90
15959;DHT22;8078;47.822;9.402;2023-07-31T11:47:55;18.20;64.30
15959;DHT22;8078;47.822;9.402;2023-07-31T11:50:22;18.60;74.00
15959;DHT22;8078;47.822;9.402;2023-07-31T11:52:49;18.80;79.50
15959;DHT22;8078;47.822;9.402;2023-07-31T11:55:16;18.90;78.20
15959;DHT22;8078;47.822;9.402;2023-07-31T11:57:43;18.80;73.60
15959;DHT22;8078;47.822;9.402;2023-07-31T12:00:10;18.60;69.20
15959;DHT22;8078;47.822;9.402;2023-07-31T12:02:38;19.00;77.90
15959;DHT22;8078;47.822;9.402;2023-07-31T12:05:06;19.20;81.70
15959;DHT22;8078;47.822;9.402;2023-07-31T12:07:52;19.50;88.00
15959;DHT22;8078;47.822;9.402;2023-07-31T12:10:31;19.70;90.60
15959;DHT22;8078;47.822;9.402;2023-07-31T12:13:04;19.70;92.10
15959;DHT22;8078;47.822;9.402;2023-07-31T12:15:42;18.90;69.10
15959;DHT22;8078;47.822;9.402;2023-07-31T12:18:13;19.40;84.30
15959;DHT22;8078;47.822;9.402;2023-07-31T12:20:44;19.90;93.10
15959;DHT22;8078;47.822;9.402;2023-07-31T12:23:22;19.70;83.90
15959;DHT22;8078;47.822;9.402;2023-07-31T12:26:10;19.00;66.50
15959;DHT22;8078;47.822;9.402;2023-07-31T12:28:46;19.20;73.10
15959;DHT22;8078;47.822;9.402;2023-07-31T12:31:14;19.80;83.40
15959;DHT22;8078;47.822;9.402;2023-07-31T12:33:41;19.70;82.50
15959;DHT22;8078;47.822;9.402;2023-07-31T12:36:12;19.40;69.70
15959;DHT22;8078;47.822;9.402;2023-07-31T12:38:38;19.50;64.60
15959;DHT22;8078;47.822;9.402;2023-07-31T12:41:04;19.60;73.90
15959;DHT22;8078;47.822;9.402;2023-07-31T12:43:32;19.50;67.30
15959;DHT22;8078;47.822;9.402;2023-07-31T12:45:58;19.70;73.60
15959;DHT22;8078;47.822;9.402;2023-07-31T12:48:24;20.00;74.60
15959;DHT22;8078;47.822;9.402;2023-07-31T12:50:50;20.10;75.70
15959;DHT22;8078;47.822;9.402;2023-07-31T12:53:16;20.00;72.60
15959;DHT22;8078;47.822;9.402;2023-07-31T12:55:41;20.10;71.00
15959;DHT22;8078;47.822;9.402;2023-07-31T12:58:07;20.20;75.80
15959;DHT22;8078;47.822;9.402;2023-07-31T13:00:33;20.80;88.80
15959;DHT22;8078;47.822;9.402;2023-07-31T13:02:59;21.00;94.70
15959;DHT22;8078;47.822;9.402;2023-07-31T13:05:25;19.50;56.40
15959;DHT22;8078;47.822;9.402;2023-07-31T13:07:51;19.30;53.00
15959;DHT22;8078;47.822;9.402;2023-07-31T13:10:17;19.20;47.80
15959;DHT22;8078;47.822;9.402;2023-07-31T13:12:42;19.30;53.20
15959;DHT22;8078;47.822;9.402;2023-07-31T13:15:08;19.10;49.00
15959;DHT22;8078;47.822;9.402;2023-07-31T13:17:34;19.00;46.90
15959;DHT22;8078;47.822;9.402;2023-07-31T13:19:59;19.00;45.00
15959;DHT22;8078;47.822;9.402;2023-07-31T13:22:25;19.20;49.50
15959;DHT22;8078;47.822;9.402;2023-07-31T13:24:50;19.50;52.80
15959;DHT22;8078;47.822;9.402;2023-07-31T13:27:16;19.60;56.50
15959;DHT22;8078;47.822;9.402;2023-07-31T13:29:44;20.20;72.30
15959;DHT22;8078;47.822;9.402;2023-07-31T13:32:10;19.90;63.10
15959;DHT22;8078;47.822;9.402;2023-07-31T13:34:36;19.80;62.30
15959;DHT22;8078;47.822;9.402;2023-07-31T13:37:01;19.40;53.10
15959;DHT22;8078;47.822;9.402;2023-07-31T13:39:27;19.70;62.10
15959;DHT22;8078;47.822;9.402;2023-07-31T13:41:52;19.80;67.30
15959;DHT22;8078;47.822;9.402;2023-07-31T13:44:18;19.60;61.50
15959;DHT22;8078;47.822;9.402;2023-07-31T13:46:43;19.20;44.20
15959;DHT22;8078;47.822;9.402;2023-07-31T13:49:09;19.20;45.20
15959;DHT22;8078;47.822;9.402;2023-07-31T13:51:34;19.50;51.40
15959;DHT22;8078;47.822;9.402;2023-07-31T13:54:01;19.30;48.80
15959;DHT22;8078;47.822;9.402;2023-07-31T13:56:27;19.50;49.30
15959;DHT22;8078;47.822;9.402;2023-07-31T13:58:52;20.00;64.70
15959;DHT22;8078;47.822;9.402;2023-07-31T14:01:18;20.40;66.30
15959;DHT22;8078;47.822;9.402;2023-07-31T14:03:43;20.10;58.70
15959;DHT22;8078;47.822;9.402;2023-07-31T14:06:09;20.40;68.40
15959;DHT22;8078;47.822;9.402;2023-07-31T14:08:35;20.50;77.80
15959;DHT22;8078;47.822;9.402;2023-07-31T14:11:00;20.80;85.60
15959;DHT22;8078;47.822;9.402;2023-07-31T14:13:26;21.00;88.10
15959;DHT22;8078;47.822;9.402;2023-07-31T14:15:51;20.80;79.10
15959;DHT22;8078;47.822;9.402;2023-07-31T14:18:17;20.90;79.00
15959;DHT22;8078;47.822;9.402;2023-07-31T14:20:43;20.30;66.40
15959;DHT22;8078;47.822;9.402;2023-07-31T14:23:08;20.80;76.30
15959;DHT22;8078;47.822;9.402;2023-07-31T14:25:34;20.80;79.00
15959;DHT22;8078;47.822;9.402;2023-07-31T14:28:00;20.90;79.70
15959;DHT22;8078;47.822;9.402;2023-07-31T14:30:25;21.30;92.10
15959;DHT22;8078;47.822;9.402;2023-07-31T14:32:51;21.30;91.10
15959;DHT22;8078;47.822;9.402;2023-07-31T14:35:16;21.10;80.20
15959;DHT22;8078;47.822;9.402;2023-07-31T14:37:43;21.00;84.70
15959;DHT22;8078;47.822;9.402;2023-07-31T14:40:10;20.40;64.00
15959;DHT22;8078;47.822;9.402;2023-07-31T14:42:37;20.30;61.10
15959;DHT22;8078;47.822;9.402;2023-07-31T14:45:04;20.40;63.70
15959;DHT22;8078;47.822;9.402;2023-07-31T14:47:29;20.60;71.80
15959;DHT22;8078;47.822;9.402;2023-07-31T14:49:56;20.90;78.70
15959;DHT22;8078;47.822;9.402;2023-07-31T14:52:22;21.00;72.80
15959;DHT22;8078;47.822;9.402;2023-07-31T14:54:47;20.80;74.80
15959;DHT22;8078;47.822;9.402;2023-07-31T14:57:13;21.00;80.60
15959;DHT22;8078;47.822;9.402;2023-07-31T14:59:38;21.10;79.10
15959;DHT22;8078;47.822;9.402;2023-07-31T15:02:04;21.20;78.30
15959;DHT22;8078;47.822;9.402;2023-07-31T15:04:30;20.80;65.40
15959;DHT22;8078;47.822;9.402;2023-07-31T15:06:55;20.80;65.40
15959;DHT22;8078;47.822;9.402;2023-07-31T15:09:21;20.60;55.70
15959;DHT22;8078;47.822;9.402;2023-07-31T15:11:47;20.70;61.50
15959;DHT22;8078;47.822;9.402;2023-07-31T15:14:13;20.40;52.30
15959;DHT22;8078;47.822;9.402;2023-07-31T15:16:38;20.10;42.70
15959;DHT22;8078;47.822;9.402;2023-07-31T15:19:04;19.90;40.20
15959;DHT22;8078;47.822;9.402;2023-07-31T15:21:29;19.80;38.70
15959;DHT22;8078;47.822;9.402;2023-07-31T15:23:55;19.90;40.80
15959;DHT22;8078;47.822;9.402;2023-07-31T15:26:20;19.90;46.00
15959;DHT22;8078;47.822;9.402;2023-07-31T15:28:49;19.90;44.20
15959;DHT22;8078;47.822;9.402;2023-07-31T15:31:15;19.90;42.80
15959;DHT22;8078;47.822;9.402;2023-07-31T15:33:41;19.80;41.90
15959;DHT22;8078;47.822;9.402;2023-07-31T15:36:06;19.90;45.70
15959;DHT22;8078;47.822;9.402;2023-07-31T15:38:32;20.00;45.80
15959;DHT22;8078;47.822;9.402;2023-07-31T15:40:58;19.90;43.00
15959;DHT22;8078;47.822;9.402;2023-07-31T15:43:24;19.90;45.70
15959;DHT22;8078;47.822;9.402;2023-07-31T15:45:50;19.80;34.50
15959;DHT22;8078;47.822;9.402;2023-07-31T15:48:15;19.80;39.70
15959;DHT22;8078;47.822;9.402;2023-07-31T15:50:41;19.70;38.10
15959;DHT22;8078;47.822;9.402;2023-07-31T15:53:06;19.70;35.40
15959;DHT22;8078;47.822;9.402;2023-07-31T15:55:33;19.70;39.30
15959;DHT22;8078;47.822;9.402;2023-07-31T15:57:58;19.70;37.70
15959;DHT22;8078;47.822;9.402;2023-07-31T16:00:24;19.70;37.60
15959;DHT22;8078;47.822;9.402;2023-07-31T16:02:49;19.70;38.30
15959;DHT22;8078;47.822;9.402;2023-07-31T16:05:15;19.70;40.00
15959;DHT22;8078;47.822;9.402;2023-07-31T16:07:41;19.80;38.70
15959;DHT22;8078;47.822;9.402;2023-07-31T16:10:07;19.80;41.80
15959;DHT22;8078;47.822;9.402;2023-07-31T16:12:32;19.90;43.20
15959;DHT22;8078;47.822;9.402;2023-07-31T16:14:58;19.90;41.30
15959;DHT22;8078;47.822;9.402;2023-07-31T16:17:24;20.00;45.10
15959;DHT22;8078;47.822;9.402;2023-07-31T16:19:49;20.00;44.60
15959;DHT22;8078;47.822;9.402;2023-07-31T16:22:15;19.90;40.60
15959;DHT22;8078;47.822;9.402;2023-07-31T16:24:40;19.80;42.60
15959;DHT22;8078;47.822;9.402;2023-07-31T16:27:06;19.70;42.10
15959;DHT22;8078;47.822;9.402;2023-07-31T16:29:31;19.70;40.40
15959;DHT22;8078;47.822;9.402;2023-07-31T16:31:57;19.80;37.30
15959;DHT22;8078;47.822;9.402;2023-07-31T16:34:23;19.70;37.40
15959;DHT22;8078;47.822;9.402;2023-07-31T16:36:50;19.80;42.60
15959;DHT22;8078;47.822;9.402;2023-07-31T16:39:15;19.90;41.50
15959;DHT22;8078;47.822;9.402;2023-07-31T16:41:41;19.90;45.80
15959;DHT22;8078;47.822;9.402;2023-07-31T16:44:06;20.10;45.90
15959;DHT22;8078;47.822;9.402;2023-07-31T16:46:32;20.50;56.40
15959;DHT22;8078;47.822;9.402;2023-07-31T16:48:58;20.40;55.20
15959;DHT22;8078;47.822;9.402;2023-07-31T16:51:24;20.10;48.90
15959;DHT22;8078;47.822;9.402;2023-07-31T16:53:50;19.90;42.80
15959;DHT22;8078;47.822;9.402;2023-07-31T16:56:16;19.80;41.50
15959;DHT22;8078;47.822;9.402;2023-07-31T16:58:42;19.80;42.40
15959;DHT22;8078;47.822;9.402;2023-07-31T17:01:08;19.70;44.30
15959;DHT22;8078;47.822;9.402;2023-07-31T17:03:34;19.60;37.80
15959;DHT22;8078;47.822;9.402;2023-07-31T17:05:59;19.50;36.10
15959;DHT22;8078;47.822;9.402;2023-07-31T17:08:25;19.70;38.70
15959;DHT22;8078;47.822;9.402;2023-07-31T17:10:50;20.00;47.50
15959;DHT22;8078;47.822;9.402;2023-07-31T17:13:16;20.00;47.10
15959;DHT22;8078;47.822;9.402;2023-07-31T17:15:41;20.00;46.50
15959;DHT22;8078;47.822;9.402;2023-07-31T17:18:07;20.40;53.60
15959;DHT22;8078;47.822;9.402;2023-07-31T17:20:34;20.20;48.10
15959;DHT22;8078;47.822;9.402;2023-07-31T17:23:00;19.80;39.70
15959;DHT22;8078;47.822;9.402;2023-07-31T17:25:25;19.70;35.60
15959;DHT22;8078;47.822;9.402;2023-07-31T17:27:51;19.40;29.70
15959;DHT22;8078;47.822;9.402;2023-07-31T17:30:16;19.40;27.80
15959;DHT22;8078;47.822;9.402;2023-07-31T17:32:43;19.30;26.60
15959;DHT22;8078;47.822;9.402;2023-07-31T17:35:08;19.30;28.70
15959;DHT22;8078;47.822;9.402;2023-07-31T17:37:34;19.30;30.80
15959;DHT22;8078;47.822;9.402;2023-07-31T17:39:59;19.20;30.40
15959;DHT22;8078;47.822;9.402;2023-07-31T17:42:26;19.20;33.00
15959;DHT22;8078;47.822;9.402;2023-07-31T17:44:51;19.20;29.40
15959;DHT22;8078;47.822;9.402;2023-07-31T17:47:17;19.10;26.70
15959;DHT22;8078;47.822;9.402;2023-07-31T17:49:44;19.00;31.50
15959;DHT22;8078;47.822;9.402;2023-07-31T17:52:10;19.10;26.10
15959;DHT22;8078;47.822;9.402;2023-07-31T17:54:36;19.00;24.50
15959;DHT22;8078;47.822;9.402;2023-07-31T17:57:01;18.90;27.80
15959;DHT22;8078;47.822;9.402;2023-07-31T17:59:27;18.90;26.70
15959;DHT22;8078;47.822;9.402;2023-07-31T18:01:52;18.80;25.20
15959;DHT22;8078;47.822;9.402;2023-07-31T18:04:18;18.80;22.60
15959;DHT22;8078;47.822;9.402;2023-07-31T18:06:44;18.80;22.70
15959;DHT22;8078;47.822;9.402;2023-07-31T18:09:09;18.70;14.10
15959;DHT22;8078;47.822;9.402;2023-07-31T18:11:35;18.70;12.70
15959;DHT22;8078;47.822;9.402;2023-07-31T18:14:01;18.70;13.20
15959;DHT22;8078;47.822;9.402;2023-07-31T18:16:27;18.70;10.90
15959;DHT22;8078;47.822;9.402;2023-07-31T18:18:53;18.70;22.00
15959;DHT22;8078;47.822;9.402;2023-07-31T18:21:18;18.60;14.90
15959;DHT22;8078;47.822;9.402;2023-07-31T18:23:44;18.60;13.60
15959;DHT22;8078;47.822;9.402;2023-07-31T18:26:09;18.50;12.30
15959;DHT22;8078;47.822;9.402;2023-07-31T18:28:36;18.50;15.30
15959;DHT22;8078;47.822;9.402;2023-07-31T18:31:02;18.50;15.40
15959;DHT22;8078;47.822;9.402;2023-07-31T18:33:28;18.50;14.00
15959;DHT22;8078;47.822;9.402;2023-07-31T18:35:54;18.50;12.40
15959;DHT22;8078;47.822;9.402;2023-07-31T18:38:20;18.40;16.60
15959;DHT22;8078;47.822;9.402;2023-07-31T18:40:45;18.40;18.40
15959;DHT22;8078;47.822;9.402;2023-07-31T18:43:11;18.40;14.70
15959;DHT22;8078;47.822;9.402;2023-07-31T18:45:36;18.50;17.40
15959;DHT22;8078;47.822;9.402;2023-07-31T18:48:02;18.40;16.10
15959;DHT22;8078;47.822;9.402;2023-07-31T18:50:28;18.40;17.00
15959;DHT22;8078;47.822;9.402;2023-07-31T18:52:53;18.40;21.00
15959;DHT22;8078;47.822;9.402;2023-07-31T18:55:19;18.40;22.80
15959;DHT22;8078;47.822;9.402;2023-07-31T18:57:45;18.30;21.00
15959;DHT22;8078;47.822;9.402;2023-07-31T19:00:11;18.40;19.90
15959;DHT22;8078;47.822;9.402;2023-07-31T19:02:37;18.40;17.70
15959;DHT22;8078;47.822;9.402;2023-07-31T19:05:03;18.40;22.20
15959;DHT22;8078;47.822;9.402;2023-07-31T19:07:28;18.40;21.30
15959;DHT22;8078;47.822;9.402;2023-07-31T19:09:54;18.30;23.60
15959;DHT22;8078;47.822;9.402;2023-07-31T19:12:20;18.30;21.00
15959;DHT22;8078;47.822;9.402;2023-07-31T19:14:46;18.30;22.90
15959;DHT22;8078;47.822;9.402;2023-07-31T19:17:12;18.30;19.30
15959;DHT22;8078;47.822;9.402;2023-07-31T19:19:37;18.30;22.20
15959;DHT22;8078;47.822;9.402;2023-07-31T19:22:03;18.30;24.70
15959;DHT22;8078;47.822;9.402;2023-07-31T19:24:29;18.40;28.40
15959;DHT22;8078;47.822;9.402;2023-07-31T19:26:54;18.30;21.00
15959;DHT22;8078;47.822;9.402;2023-07-31T19:29:20;18.30;25.60
15959;DHT22;8078;47.822;9.402;2023-07-31T19:31:45;18.30;28.50
15959;DHT22;8078;47.822;9.402;2023-07-31T19:34:11;18.30;22.20
15959;DHT22;8078;47.822;9.402;2023-07-31T19:36:38;18.30;19.60
15959;DHT22;8078;47.822;9.402;2023-07-31T19:39:03;18.30;23.80
15959;DHT22;8078;47.822;9.402;2023-07-31T19:41:30;18.30;19.30
15959;DHT22;8078;47.822;9.402;2023-07-31T19:43:55;18.20;25.70
15959;DHT22;8078;47.822;9.402;2023-07-31T19:46:21;18.20;25.10
15959;DHT22;8078;47.822;9.402;2023-07-31T19:48:47;18.20;23.50
15959;DHT22;8078;47.822;9.402;2023-07-31T19:51:12;18.20;20.30
15959;DHT22;8078;47.822;9.402;2023-07-31T19:53:38;18.20;21.10
15959;DHT22;8078;47.822;9.402;2023-07-31T19:56:07;18.10;18.90
15959;DHT22;8078;47.822;9.402;2023-07-31T19:58:33;18.20;21.50
15959;DHT22;8078;47.822;9.402;2023-07-31T20:00:58;18.10;24.10
15959;DHT22;8078;47.822;9.402;2023-07-31T20:03:24;18.10;24.60
15959;DHT22;8078;47.822;9.402;2023-07-31T20:05:51;18.10;23.60
15959;DHT22;8078;47.822;9.402;2023-07-31T20:08:16;18.10;25.20
15959;DHT22;8078;47.822;9.402;2023-07-31T20:10:43;18.20;26.20
15959;DHT22;8078;47.822;9.402;2023-07-31T20:13:08;18.10;29.10
15959;DHT22;8078;47.822;9.402;2023-07-31T20:15:34;18.20;27.90